Time;durP1;ratioP1;P1;durP2;ratioP2;P2;SDS_P1;SDS_P2;PMS_P1;PMS_P2;Temp;Humidity;BMP_temperature;BMP_pressure;BME280_temperature;BME280_humidity;BME280_pressure;Samples;Min_cycle;Max_cycle;Signal;HPM_P1;HPM_P2
2023/05/14 00:03:33;;;;;;;;;;;;;;;20.17;55.87;95563.31;10246700;28;1999;-69
2023/05/14 00:08:33;;;;;;;;;;;;;;;20.16;55.42;95559.09;10243752;28;1943;-69
2023/05/14 00:13:34;;;;;;;;;;;;;;;20.12;56.49;95550.97;10243133;28;1836;-70
2023/05/14 00:18:34;;;;;;;;;;;;;;;20.10;56.32;95555.72;10247607;28;1988;-70
2023/05/14 00:23:34;;;;;;;;;;;;;;;20.13;55.21;95543.88;10249029;28;1852;-70
2023/05/14 00:28:35;;;;;;;;;;;;;;;20.08;56.25;95551.78;10246462;28;1843;-70
2023/05/14 00:33:35;;;;;;;;;;;;;;;20.09;55.64;95542.84;10241569;28;4379;-69
2023/05/14 00:38:35;;;;;;;;;;;;;;;20.07;55.65;95544.97;10237904;28;2122;-70
2023/05/14 00:43:35;;;;;;;;;;;;;;;20.07;55.87;95550.25;10249503;28;2011;-70
2023/05/14 00:48:36;;;;;;;;;;;;;;;20.06;55.37;95543.41;10244439;28;1958;-70
2023/05/14 00:53:36;;;;;;;;;;;;;;;20.05;55.54;95542.59;10243099;28;1932;-70
2023/05/14 00:58:36;;;;;;;;;;;;;;;20.04;55.77;95541.03;10244869;28;1985;-70
2023/05/14 01:03:37;;;;;;;;;;;;;;;20.02;56.03;95543.16;10241112;28;1896;-70
2023/05/14 01:08:37;;;;;;;;;;;;;;;20.01;56.25;95540.81;10241379;28;1873;-70
2023/05/14 01:13:43;;;;;;;;;;;;;;;20.02;54.76;95531.84;10242549;28;1890;-70
2023/05/14 01:18:43;;;;;;;;;;;;;;;19.98;56.10;95539.50;10247104;28;1924;-70
2023/05/14 01:23:43;;;;;;;;;;;;;;;19.99;55.98;95527.16;10243146;28;1916;-70
2023/05/14 01:28:44;;;;;;;;;;;;;;;19.98;55.83;95536.88;10246327;28;1947;-69
2023/05/14 01:33:44;;;;;;;;;;;;;;;19.99;55.42;95525.28;10242018;28;4418;-71
2023/05/14 01:38:46;;;;;;;;;;;;;;;19.96;55.88;95527.69;10245288;28;1970;-70
2023/05/14 01:43:46;;;;;;;;;;;;;;;19.96;55.99;95522.44;10242579;28;1875;-69
2023/05/14 01:48:46;;;;;;;;;;;;;;;19.94;56.00;95519.28;10240343;28;2197;-69
2023/05/14 01:53:46;;;;;;;;;;;;;;;19.96;55.31;95519.78;10242897;28;1902;-70
2023/05/14 01:58:47;;;;;;;;;;;;;;;19.93;55.92;95501.91;10237928;28;1929;-69
2023/05/14 02:03:47;;;;;;;;;;;;;;;19.91;56.18;95504.81;10238113;28;2321;-70
2023/05/14 02:08:47;;;;;;;;;;;;;;;19.92;55.71;95501.16;10240384;28;2012;-69
2023/05/14 02:13:47;;;;;;;;;;;;;;;19.90;55.94;95508.53;10237926;28;1939;-69
2023/05/14 02:18:48;;;;;;;;;;;;;;;19.90;55.87;95502.47;10242709;28;2316;-69
2023/05/14 02:23:49;;;;;;;;;;;;;;;19.89;55.89;95499.06;10244342;28;1922;-69
2023/05/14 02:28:49;;;;;;;;;;;;;;;19.89;55.69;95500.91;10238001;28;1968;-69
2023/05/14 02:33:49;;;;;;;;;;;;;;;19.88;55.25;95494.06;10238029;28;4577;-70
2023/05/14 02:38:49;;;;;;;;;;;;;;;19.88;55.23;95500.13;10241403;28;2221;-69
2023/05/14 02:43:50;;;;;;;;;;;;;;;19.87;55.45;95495.91;10242075;28;2033;-69
2023/05/14 02:48:51;;;;;;;;;;;;;;;19.87;55.52;95500.38;10249412;28;1835;-70
2023/05/14 02:53:51;;;;;;;;;;;;;;;19.86;55.01;95497.00;10256554;28;1819;-69
2023/05/14 02:58:51;;;;;;;;;;;;;;;19.85;55.11;95498.03;10251839;28;1960;-69
2023/05/14 03:03:52;;;;;;;;;;;;;;;19.84;54.96;95493.84;10253074;28;1960;-69
2023/05/14 03:08:52;;;;;;;;;;;;;;;19.83;55.21;95488.84;10250976;28;1993;-69
2023/05/14 03:13:52;;;;;;;;;;;;;;;19.83;54.90;95491.47;10249942;28;1965;-69
2023/05/14 03:18:52;;;;;;;;;;;;;;;19.83;54.68;95487.00;10250000;28;2085;-69
2023/05/14 03:23:53;;;;;;;;;;;;;;;19.81;54.89;95490.97;10250456;28;1993;-69
2023/05/14 03:28:53;;;;;;;;;;;;;;;19.79;55.24;95482.56;10255453;28;1949;-69
2023/05/14 03:33:53;;;;;;;;;;;;;;;19.78;54.85;95479.16;10247921;28;4393;-68
2023/05/14 03:38:54;;;;;;;;;;;;;;;19.80;55.07;95476.25;10250840;28;2076;-69
2023/05/14 03:43:54;;;;;;;;;;;;;;;19.79;54.99;95472.03;10251852;28;1968;-69
2023/05/14 03:48:54;;;;;;;;;;;;;;;19.78;54.33;95475.75;10252051;28;1973;-69
2023/05/14 03:53:55;;;;;;;;;;;;;;;19.75;54.88;95471.03;10256118;28;1901;-69
2023/05/14 03:58:55;;;;;;;;;;;;;;;19.75;54.81;95466.56;10249651;28;1985;-69
2023/05/14 04:03:55;;;;;;;;;;;;;;;19.75;54.83;95473.66;10246363;28;1944;-69
2023/05/14 04:08:56;;;;;;;;;;;;;;;19.75;54.27;95471.81;10248944;28;1998;-68
2023/05/14 04:13:56;;;;;;;;;;;;;;;19.75;54.28;95471.03;10243128;28;1976;-69
2023/05/14 04:18:56;;;;;;;;;;;;;;;19.78;54.62;95479.16;10251084;28;1914;-69
2023/05/14 04:23:56;;;;;;;;;;;;;;;19.84;54.28;95474.66;10243996;28;1976;-69
2023/05/14 04:29:00;;;;;;;;;;;;;;;19.87;54.70;95474.88;10246183;28;2086;-69
2023/05/14 04:34:00;;;;;;;;;;;;;;;19.96;54.39;95472.44;10241170;28;4612;-69
2023/05/14 04:39:00;;;;;;;;;;;;;;;19.99;54.45;95475.28;10242717;28;2129;-69
2023/05/14 04:44:01;;;;;;;;;;;;;;;20.05;54.42;95476.81;10243957;28;1964;-69
2023/05/14 04:49:01;;;;;;;;;;;;;;;20.09;54.74;95477.06;10244119;28;1826;-69
2023/05/14 04:54:02;;;;;;;;;;;;;;;20.13;54.46;95480.72;10246851;28;1918;-69
2023/05/14 04:59:02;;;;;;;;;;;;;;;20.18;54.19;95478.03;10240492;28;1976;-69
2023/05/14 05:04:02;;;;;;;;;;;;;;;20.22;54.22;95479.06;10239357;28;1871;-69
2023/05/14 05:09:03;;;;;;;;;;;;;;;20.27;53.69;95476.41;10241179;28;1948;-69
2023/05/14 05:14:03;;;;;;;;;;;;;;;20.33;53.58;95483.19;10243892;28;1983;-69
2023/05/14 05:19:03;;;;;;;;;;;;;;;20.37;53.70;95475.50;10246329;28;1961;-69
2023/05/14 05:24:04;;;;;;;;;;;;;;;20.40;53.56;95478.41;10244683;28;1924;-68
2023/05/14 05:29:04;;;;;;;;;;;;;;;20.47;53.10;95484.09;10239159;28;1921;-68
2023/05/14 05:34:04;;;;;;;;;;;;;;;20.50;52.46;95478.28;10238427;28;4385;-69
2023/05/14 05:39:05;;;;;;;;;;;;;;;20.55;53.37;95477.44;10240308;28;1989;-68
2023/05/14 05:44:05;;;;;;;;;;;;;;;20.58;52.83;95480.31;10235303;28;1941;-68
2023/05/14 05:49:05;;;;;;;;;;;;;;;20.63;52.46;95485.50;10242940;28;1901;-69
2023/05/14 05:54:06;;;;;;;;;;;;;;;20.60;53.05;95477.38;10240816;28;1960;-68
2023/05/14 05:59:06;;;;;;;;;;;;;;;20.60;52.92;95493.97;10243638;28;1968;-68
2023/05/14 06:04:07;;;;;;;;;;;;;;;20.64;53.08;95481.03;10237174;28;2080;-68
2023/05/14 06:09:08;;;;;;;;;;;;;;;20.64;52.99;95475.75;10238450;28;1938;-68
2023/05/14 06:14:08;;;;;;;;;;;;;;;20.67;52.66;95480.50;10241901;28;1977;-68
2023/05/14 06:19:08;;;;;;;;;;;;;;;20.66;52.66;95473.63;10241752;28;2031;-70
2023/05/14 06:24:09;;;;;;;;;;;;;;;20.67;53.05;95475.97;10234592;28;1985;-69
2023/05/14 06:29:09;;;;;;;;;;;;;;;20.65;52.68;95478.09;10221187;28;2115;-70
2023/05/14 06:34:10;;;;;;;;;;;;;;;20.64;52.84;95475.75;10238027;28;4389;-70
2023/05/14 06:39:11;;;;;;;;;;;;;;;20.60;52.99;95478.19;10239484;28;1907;-69
2023/05/14 06:44:11;;;;;;;;;;;;;;;20.63;52.95;95476.84;10241201;28;1992;-70
2023/05/14 06:49:11;;;;;;;;;;;;;;;20.65;52.53;95472.09;10239604;28;1846;-65
2023/05/14 06:54:12;;;;;;;;;;;;;;;20.67;52.42;95475.97;10238913;28;2379;-63
2023/05/14 06:59:12;;;;;;;;;;;;;;;20.70;52.32;95485.97;10240192;28;1906;-63
2023/05/14 07:04:12;;;;;;;;;;;;;;;20.72;52.28;95480.41;10237988;28;2009;-66
2023/05/14 07:09:13;;;;;;;;;;;;;;;20.70;52.13;95474.63;10242013;28;1964;-66
2023/05/14 07:14:13;;;;;;;;;;;;;;;20.71;52.69;95461.19;10235494;28;1976;-67
2023/05/14 07:19:13;;;;;;;;;;;;;;;20.71;52.67;95445.38;10240038;28;1969;-67
2023/05/14 07:24:14;;;;;;;;;;;;;;;20.72;52.67;95441.69;10236504;28;2152;-66
2023/05/14 07:29:14;;;;;;;;;;;;;;;20.72;53.00;95452.22;10238396;28;1834;-69
2023/05/14 07:34:14;;;;;;;;;;;;;;;20.71;52.18;95445.38;10241943;28;2272;-68
2023/05/14 07:39:14;;;;;;;;;;;;;;;20.72;52.59;95456.72;10244816;28;1960;-67
2023/05/14 07:44:15;;;;;;;;;;;;;;;20.68;52.63;95456.50;10244558;28;1979;-69
2023/05/14 07:49:15;;;;;;;;;;;;;;;20.71;52.64;95436.72;10245576;28;2068;-67
2023/05/14 07:54:15;;;;;;;;;;;;;;;20.65;51.44;95435.22;10238509;28;2015;-66
2023/05/14 07:59:16;;;;;;;;;;;;;;;20.63;52.35;95432.84;10243573;28;1950;-68
2023/05/14 08:04:16;;;;;;;;;;;;;;;20.60;51.96;95430.78;10245537;28;1983;-67
2023/05/14 08:09:17;;;;;;;;;;;;;;;20.59;51.77;95429.19;10242766;28;2015;-67
2023/05/14 08:14:17;;;;;;;;;;;;;;;20.58;51.61;95426.84;10241846;28;1981;-68
2023/05/14 08:19:17;;;;;;;;;;;;;;;20.54;52.08;95433.75;10244477;28;2015;-67
2023/05/14 08:24:18;;;;;;;;;;;;;;;20.53;52.38;95440.84;10237628;28;2233;-68
2023/05/14 08:29:18;;;;;;;;;;;;;;;20.47;52.59;95447.25;10246862;28;1929;-66
2023/05/14 08:34:18;;;;;;;;;;;;;;;20.48;52.76;95450.66;10241728;28;4429;-67
2023/05/14 08:39:19;;;;;;;;;;;;;;;20.47;52.09;95443.81;10243191;28;1974;-67
2023/05/14 08:44:19;;;;;;;;;;;;;;;20.42;52.79;95436.78;10239905;28;1968;-67
2023/05/14 08:49:19;;;;;;;;;;;;;;;20.44;52.70;95445.19;10240811;28;1969;-67
2023/05/14 08:54:22;;;;;;;;;;;;;;;20.40;52.50;95438.13;10244192;28;1907;-69
2023/05/14 08:59:22;;;;;;;;;;;;;;;20.36;52.76;95437.09;10242009;28;1971;-68
2023/05/14 09:04:23;;;;;;;;;;;;;;;20.37;51.78;95438.66;10239727;28;1961;-66
2023/05/14 09:09:23;;;;;;;;;;;;;;;20.33;52.79;95433.19;10241666;28;2079;-67
2023/05/14 09:14:23;;;;;;;;;;;;;;;20.31;52.71;95426.63;10242227;28;2035;-67
2023/05/14 09:19:24;;;;;;;;;;;;;;;20.31;51.66;95424.78;10244506;28;1996;-67
2023/05/14 09:24:25;;;;;;;;;;;;;;;20.30;52.76;95427.69;10238252;28;1954;-67
2023/05/14 09:29:25;;;;;;;;;;;;;;;20.29;51.77;95421.63;10241739;28;1838;-67
2023/05/14 09:34:29;;;;;;;;;;;;;;;20.26;52.33;95419.56;10240852;28;4417;-67
2023/05/14 09:39:29;;;;;;;;;;;;;;;20.25;52.72;95425.91;10241728;28;2064;-67
2023/05/14 09:44:30;;;;;;;;;;;;;;;20.24;52.50;95419.84;10241285;28;1953;-67
2023/05/14 09:49:31;;;;;;;;;;;;;;;20.24;52.94;95413.78;10238313;28;1948;-67
2023/05/14 09:54:31;;;;;;;;;;;;;;;20.21;52.67;95419.63;10239582;28;1878;-67
2023/05/14 09:59:31;;;;;;;;;;;;;;;20.20;53.01;95415.41;10239177;28;1969;-67
2023/05/14 10:04:31;;;;;;;;;;;;;;;20.19;52.71;95417.28;10238340;28;1898;-67
2023/05/14 10:09:32;;;;;;;;;;;;;;;20.20;52.44;95420.66;10239929;28;2057;-67
2023/05/14 10:14:32;;;;;;;;;;;;;;;20.19;52.54;95416.44;10235562;28;2178;-66
2023/05/14 10:19:34;;;;;;;;;;;;;;;20.16;52.74;95414.38;10238283;28;2014;-67
2023/05/14 10:24:34;;;;;;;;;;;;;;;20.16;52.36;95423.06;10240748;28;1969;-67
2023/05/14 10:29:34;;;;;;;;;;;;;;;20.14;52.69;95425.19;10236116;28;1934;-67
2023/05/14 10:34:39;;;;;;;;;;;;;;;20.16;52.32;95427.53;10236308;28;1882;-67
2023/05/14 10:39:43;;;;;;;;;;;;;;;20.13;52.44;95422.81;10240347;28;1918;-66
2023/05/14 10:44:54;;;;;;;;;;;;;;;20.14;52.56;95427.00;10236763;28;1777;-67
2023/05/14 10:49:54;;;;;;;;;;;;;;;20.11;52.92;95422.31;10234982;28;1770;-67
2023/05/14 10:54:58;;;;;;;;;;;;;;;20.11;52.75;95420.47;10238052;28;1765;-67
2023/05/14 10:59:59;;;;;;;;;;;;;;;20.09;52.79;95419.94;10236685;28;1903;-68
2023/05/14 11:05:02;;;;;;;;;;;;;;;20.08;52.86;95423.66;10239902;28;1887;-66
2023/05/14 11:10:06;;;;;;;;;;;;;;;20.11;52.71;95423.09;10245409;28;2147;-68
2023/05/14 11:15:10;;;;;;;;;;;;;;;20.11;52.47;95422.31;10245889;28;1766;-67
2023/05/14 11:20:10;;;;;;;;;;;;;;;20.10;52.90;95412.84;10243948;28;1892;-68
2023/05/14 11:25:13;;;;;;;;;;;;;;;20.11;52.77;95404.66;10253838;28;1849;-69
2023/05/14 11:30:13;;;;;;;;;;;;;;;20.13;53.44;95404.41;10252583;28;1780;-68
2023/05/14 11:35:14;;;;;;;;;;;;;;;20.15;53.67;95389.13;10245688;28;4426;-67
2023/05/14 11:40:15;;;;;;;;;;;;;;;20.16;53.95;95388.03;10243649;28;1968;-68
2023/05/14 11:45:23;;;;;;;;;;;;;;;20.17;53.55;95390.38;10241070;28;1939;-69
2023/05/14 11:50:23;;;;;;;;;;;;;;;20.17;53.65;95387.75;10238892;28;1894;-66
2023/05/14 11:55:23;;;;;;;;;;;;;;;20.20;53.87;95373.28;10242769;28;1898;-66
2023/05/14 12:00:25;;;;;;;;;;;;;;;20.23;53.81;95370.13;10240376;28;1960;-65
2023/05/14 12:05:25;;;;;;;;;;;;;;;20.21;53.83;95367.78;10245172;28;2025;-64
2023/05/14 12:10:25;;;;;;;;;;;;;;;20.20;54.29;95354.88;10241621;28;2018;-65
2023/05/14 12:15:25;;;;;;;;;;;;;;;20.20;54.14;95350.41;10240556;28;2039;-65
2023/05/14 12:20:27;;;;;;;;;;;;;;;20.20;54.30;95339.09;10243138;28;1906;-66
2023/05/14 12:25:27;;;;;;;;;;;;;;;20.19;53.93;95335.69;10236237;28;1864;-65
2023/05/14 12:30:28;;;;;;;;;;;;;;;20.18;54.06;95326.19;10235735;28;1958;-66
2023/05/14 12:35:29;;;;;;;;;;;;;;;20.18;53.64;95323.56;10239062;28;4409;-65
2023/05/14 12:40:29;;;;;;;;;;;;;;;20.16;53.72;95323.06;10244233;28;1977;-64
2023/05/14 12:45:29;;;;;;;;;;;;;;;20.17;53.79;95302.78;10238068;28;2031;-64
2023/05/14 12:50:30;;;;;;;;;;;;;;;20.18;54.10;95302.50;10244645;28;1879;-66
2023/05/14 12:55:30;;;;;;;;;;;;;;;20.17;53.89;95297.53;10241959;28;1904;-64
2023/05/14 13:00:30;;;;;;;;;;;;;;;20.20;54.15;95289.09;10241240;28;2073;-66
2023/05/14 13:05:32;;;;;;;;;;;;;;;20.20;53.98;95294.34;10245296;28;1646;-65
2023/05/14 13:10:32;;;;;;;;;;;;;;;20.15;52.81;95287.25;10239045;28;1820;-64
2023/05/14 13:15:32;;;;;;;;;;;;;;;20.13;51.84;95288.63;10236183;28;2038;-65
2023/05/14 13:20:33;;;;;;;;;;;;;;;20.08;51.36;95257.09;10240916;28;1968;-65
2023/05/14 13:25:33;;;;;;;;;;;;;;;20.08;52.89;95257.09;10236052;28;1843;-70
2023/05/14 13:31:06;;;;;;;;;;;;;;;20.05;52.39;95240.03;10239266;28;1919;-81
2023/05/14 13:36:27;;;;;;;;;;;;;;;20.07;52.84;95243.16;10231085;28;7746;-71
2023/05/14 13:41:49;;;;;;;;;;;;;;;20.09;53.12;95233.13;10236047;28;5471;-70
2023/05/14 13:47:10;;;;;;;;;;;;;;;20.13;53.22;95238.63;10236680;28;1754;-71
2023/05/14 13:52:30;;;;;;;;;;;;;;;20.14;53.03;95227.03;10241770;28;5428;-71
2023/05/14 13:57:51;;;;;;;;;;;;;;;20.18;52.72;95220.13;10241185;28;1742;-71
2023/05/14 14:03:12;;;;;;;;;;;;;;;20.22;52.73;95210.63;10237744;28;1876;-71
2023/05/14 14:08:32;;;;;;;;;;;;;;;20.26;52.67;95203.72;10238021;28;3567;-70
2023/05/14 14:13:53;;;;;;;;;;;;;;;20.30;52.41;95204.72;10237577;28;1831;-72
2023/05/14 14:19:13;;;;;;;;;;;;;;;20.33;52.56;95200.75;10237564;28;1903;-71
2023/05/14 14:24:34;;;;;;;;;;;;;;;20.36;52.38;95193.06;10238016;28;1872;-71
2023/05/14 14:29:55;;;;;;;;;;;;;;;20.39;52.31;95184.59;10236415;28;1844;-71
2023/05/14 14:35:16;;;;;;;;;;;;;;;20.42;52.40;95168.25;10237875;28;1737;-74
2023/05/14 14:40:37;;;;;;;;;;;;;;;20.44;52.13;95150.31;10234328;28;1875;-79
2023/05/14 14:45:58;;;;;;;;;;;;;;;20.50;52.06;95167.59;10236376;28;1954;-80
2023/05/14 14:51:18;;;;;;;;;;;;;;;20.52;51.99;95162.84;10241881;28;1855;-78
2023/05/14 14:56:39;;;;;;;;;;;;;;;20.53;52.09;95159.13;10242336;28;1840;-77
2023/05/14 15:02:00;;;;;;;;;;;;;;;20.52;51.86;95165.47;10239699;28;1931;-78
2023/05/14 15:07:21;;;;;;;;;;;;;;;20.52;52.19;95167.31;10229422;28;1887;-79
2023/05/14 15:12:42;;;;;;;;;;;;;;;20.51;52.12;95163.09;10238324;28;1903;-79
2023/05/14 15:18:03;;;;;;;;;;;;;;;20.50;51.92;95146.53;10237868;28;1852;-76
2023/05/14 15:23:23;;;;;;;;;;;;;;;20.50;52.03;95141.28;10235678;28;1918;-76
2023/05/14 15:28:44;;;;;;;;;;;;;;;20.49;51.97;95142.34;10236148;28;1663;-76
2023/05/14 15:34:05;;;;;;;;;;;;;;;20.48;52.07;95148.69;10234577;28;1875;-75
2023/05/14 15:39:25;;;;;;;;;;;;;;;20.48;52.25;95153.94;10233082;28;2303;-76
2023/05/14 15:44:46;;;;;;;;;;;;;;;20.46;51.99;95148.19;10231329;28;5280;-77
2023/05/14 15:50:07;;;;;;;;;;;;;;;20.45;52.33;95158.97;10236199;28;1971;-75
2023/05/14 15:55:27;;;;;;;;;;;;;;;20.46;52.10;95190.31;10242273;28;1885;-76
2023/05/14 16:00:48;;;;;;;;;;;;;;;20.56;52.25;95186.72;10241240;28;1970;-72
2023/05/14 16:06:10;;;;;;;;;;;;;;;20.67;51.93;95199.44;10241567;28;1878;-78
2023/05/14 16:11:30;;;;;;;;;;;;;;;20.78;51.88;95214.03;10242134;28;1836;-71
2023/05/14 16:16:51;;;;;;;;;;;;;;;20.90;51.49;95211.72;10241793;28;1896;-72
2023/05/14 16:22:12;;;;;;;;;;;;;;;20.99;50.60;95210.00;10241665;28;1907;-73
2023/05/14 16:27:33;;;;;;;;;;;;;;;21.08;50.37;95207.53;10238517;28;1859;-73
2023/05/14 16:32:53;;;;;;;;;;;;;;;21.13;50.56;95219.81;10246368;28;1776;-73
2023/05/14 16:38:14;;;;;;;;;;;;;;;21.21;49.87;95221.78;10235041;28;2444;-72
2023/05/14 16:43:35;;;;;;;;;;;;;;;21.24;50.01;95221.22;10241294;28;2014;-70
2023/05/14 16:48:55;;;;;;;;;;;;;;;21.28;49.31;95225.63;10241808;28;1895;-70
2023/05/14 16:54:16;;;;;;;;;;;;;;;21.32;49.71;95228.47;10240833;28;1879;-67
2023/05/14 16:59:36;;;;;;;;;;;;;;;21.34;49.82;95234.22;10240565;28;1977;-67
2023/05/14 17:04:57;;;;;;;;;;;;;;;21.24;49.63;95231.75;10236889;28;1929;-65
2023/05/14 17:10:17;;;;;;;;;;;;;;;21.19;49.35;95218.66;10242187;28;1910;-65
2023/05/14 17:15:40;;;;;;;;;;;;;;;21.08;50.29;95218.84;10239538;28;1942;-66
2023/05/14 17:20:40;;;;;;;;;;;;;;;21.01;50.21;95218.41;10241543;28;2014;-66
2023/05/14 17:25:41;;;;;;;;;;;;;;;20.95;50.55;95216.94;10233774;28;1855;-67
2023/05/14 17:31:01;;;;;;;;;;;;;;;20.92;51.55;95219.34;10239796;28;1824;-67
2023/05/14 17:36:22;;;;;;;;;;;;;;;20.87;51.51;95227.34;10234796;28;1848;-67
2023/05/14 17:41:43;;;;;;;;;;;;;;;20.83;51.68;95224.50;10231090;28;1960;-67
2023/05/14 17:47:03;;;;;;;;;;;;;;;20.80;52.22;95224.28;10239104;28;1749;-65
2023/05/14 17:52:24;;;;;;;;;;;;;;;20.79;52.64;95228.00;10230697;28;9731;-67
2023/05/14 17:57:45;;;;;;;;;;;;;;;20.74;52.83;95230.69;10232046;28;6834;-66
2023/05/14 18:02:45;;;;;;;;;;;;;;;20.72;52.68;95235.47;10241646;28;5424;-67
2023/05/14 18:07:45;;;;;;;;;;;;;;;20.69;52.97;95236.81;10228955;28;9351;-66
2023/05/14 18:12:45;;;;;;;;;;;;;;;20.69;52.85;95231.53;10225295;28;5378;-69
2023/05/14 18:17:46;;;;;;;;;;;;;;;20.68;52.54;95230.00;10227646;28;5419;-67
2023/05/14 18:22:49;;;;;;;;;;;;;;;20.64;52.66;95218.47;10235060;28;6795;-65
2023/05/14 18:27:49;;;;;;;;;;;;;;;20.64;52.62;95234.28;10237287;28;5371;-64
2023/05/14 18:32:50;;;;;;;;;;;;;;;20.62;52.77;95233.78;10234781;28;6579;-63
2023/05/14 18:37:50;;;;;;;;;;;;;;;20.59;53.39;95234.34;10239955;28;5194;-64
2023/05/14 18:42:50;;;;;;;;;;;;;;;20.62;54.02;95240.88;10240135;28;1965;-65
2023/05/14 18:47:50;;;;;;;;;;;;;;;20.64;54.30;95239.53;10233400;28;5321;-66
2023/05/14 18:52:51;;;;;;;;;;;;;;;20.65;54.91;95243.72;10238542;28;1835;-66
2023/05/14 18:57:51;;;;;;;;;;;;;;;20.66;55.17;95247.16;10239501;28;1777;-66
2023/05/14 19:02:51;;;;;;;;;;;;;;;20.66;55.43;95249.78;10232473;28;3470;-66
2023/05/14 19:07:51;;;;;;;;;;;;;;;20.66;55.56;95250.56;10237699;28;1882;-66
2023/05/14 19:12:52;;;;;;;;;;;;;;;20.64;55.40;95252.69;10233000;28;1884;-68
2023/05/14 19:17:52;;;;;;;;;;;;;;;20.61;55.07;95253.25;10240937;28;1894;-67
2023/05/14 19:22:53;;;;;;;;;;;;;;;20.59;55.10;95251.97;10240309;28;1996;-68
2023/05/14 19:27:54;;;;;;;;;;;;;;;20.58;55.17;95256.47;10242155;28;1960;-67
2023/05/14 19:32:54;;;;;;;;;;;;;;;20.60;56.29;95254.34;10243248;28;1840;-68
2023/05/14 19:37:54;;;;;;;;;;;;;;;20.62;56.63;95254.06;10242281;28;8676;-67
2023/05/14 19:42:54;;;;;;;;;;;;;;;20.62;56.72;95252.22;10243478;28;1910;-68
2023/05/14 19:47:55;;;;;;;;;;;;;;;20.62;56.85;95252.22;10244082;28;1831;-69
2023/05/14 19:52:56;;;;;;;;;;;;;;;20.62;57.22;95257.47;10247566;28;1887;-67
2023/05/14 19:57:56;;;;;;;;;;;;;;;20.64;56.54;95254.53;10244939;28;1887;-68
2023/05/14 20:02:58;;;;;;;;;;;;;;;20.63;56.76;95253.00;10244408;28;1907;-68
2023/05/14 20:07:58;;;;;;;;;;;;;;;20.60;56.87;95254.34;10241517;28;1942;-68
2023/05/14 20:12:58;;;;;;;;;;;;;;;20.61;56.73;95255.13;10234638;28;1978;-68
2023/05/14 20:17:58;;;;;;;;;;;;;;;20.56;56.52;95257.81;10238131;28;1872;-68
2023/05/14 20:22:59;;;;;;;;;;;;;;;20.51;56.26;95249.97;10243081;28;1879;-68
2023/05/14 20:27:59;;;;;;;;;;;;;;;20.50;56.20;95248.44;10236062;28;1907;-68
2023/05/14 20:33:00;;;;;;;;;;;;;;;20.46;56.34;95245.59;10235550;28;1970;-68
2023/05/14 20:38:01;;;;;;;;;;;;;;;20.45;56.32;95251.13;10240818;28;5254;-68
2023/05/14 20:43:01;;;;;;;;;;;;;;;20.41;56.23;95248.28;10237907;28;2021;-68
2023/05/14 20:48:01;;;;;;;;;;;;;;;20.40;56.04;95244.09;10244196;28;1824;-68
2023/05/14 20:53:01;;;;;;;;;;;;;;;20.37;55.86;95244.66;10237744;28;1944;-68
2023/05/14 20:58:02;;;;;;;;;;;;;;;20.35;55.89;95246.78;10244668;28;1970;-68
2023/05/14 21:03:02;;;;;;;;;;;;;;;20.33;55.83;95241.03;10241671;28;1911;-68
2023/05/14 21:08:03;;;;;;;;;;;;;;;20.32;55.89;95251.84;10243961;28;1616;-68
2023/05/14 21:13:03;;;;;;;;;;;;;;;20.29;55.62;95237.41;10240978;28;1907;-68
2023/05/14 21:18:03;;;;;;;;;;;;;;;20.28;55.57;95230.56;10238753;28;1894;-68
2023/05/14 21:23:03;;;;;;;;;;;;;;;20.27;55.73;95239.53;10243308;28;1964;-68
2023/05/14 21:28:04;;;;;;;;;;;;;;;20.26;55.28;95240.59;10238905;28;1868;-68
2023/05/14 21:33:04;;;;;;;;;;;;;;;20.24;55.38;95230.34;10240275;28;1945;-68
2023/05/14 21:38:04;;;;;;;;;;;;;;;20.24;55.15;95240.88;10237052;28;5803;-68
2023/05/14 21:43:05;;;;;;;;;;;;;;;20.23;55.07;95243.78;10239644;28;1903;-67
2023/05/14 21:48:05;;;;;;;;;;;;;;;20.21;55.08;95248.56;10242484;28;1971;-68
2023/05/14 21:53:05;;;;;;;;;;;;;;;20.20;55.04;95239.88;10218340;28;1773;-68
2023/05/14 21:58:06;;;;;;;;;;;;;;;20.20;54.90;95226.72;10238608;28;1820;-68
2023/05/14 22:03:06;;;;;;;;;;;;;;;20.20;54.84;95225.94;10240711;28;1911;-68
2023/05/14 22:08:06;;;;;;;;;;;;;;;20.17;54.62;95221.22;10234868;28;1876;-68
2023/05/14 22:13:07;;;;;;;;;;;;;;;20.16;54.39;95228.31;10230405;28;1875;-68
2023/05/14 22:18:07;;;;;;;;;;;;;;;20.14;54.69;95227.81;10236172;28;1972;-68
2023/05/14 22:23:07;;;;;;;;;;;;;;;20.15;54.55;95228.59;10235887;28;1975;-68
2023/05/14 22:28:08;;;;;;;;;;;;;;;20.12;54.44;95218.63;10238047;28;2017;-68
2023/05/14 22:33:08;;;;;;;;;;;;;;;20.10;54.41;95218.94;10233560;28;2025;-68
2023/05/14 22:38:08;;;;;;;;;;;;;;;20.11;54.28;95225.72;10236039;28;5724;-68
2023/05/14 22:43:08;;;;;;;;;;;;;;;20.08;54.35;95218.44;10234784;28;1883;-68
2023/05/14 22:48:09;;;;;;;;;;;;;;;20.09;54.04;95211.31;10236554;28;2077;-68
2023/05/14 22:53:09;;;;;;;;;;;;;;;20.07;54.07;95213.44;10234362;28;1879;-68
2023/05/14 22:58:10;;;;;;;;;;;;;;;20.05;53.78;95205.06;10237270;28;1808;-68
2023/05/14 23:03:11;;;;;;;;;;;;;;;20.05;54.04;95205.06;10239672;28;1930;-68
2023/05/14 23:08:11;;;;;;;;;;;;;;;20.05;53.72;95210.31;10243769;28;1900;-68
2023/05/14 23:13:11;;;;;;;;;;;;;;;20.05;53.69;95215.59;10244728;28;1845;-68
2023/05/14 23:18:12;;;;;;;;;;;;;;;20.03;53.83;95212.44;10245726;28;1914;-68
2023/05/14 23:23:12;;;;;;;;;;;;;;;20.03;53.82;95201.94;10248877;28;2087;-67
2023/05/14 23:28:12;;;;;;;;;;;;;;;20.00;53.60;95197.22;10245728;28;1856;-68
2023/05/14 23:33:12;;;;;;;;;;;;;;;20.01;53.42;95193.53;10247965;28;1959;-67
2023/05/14 23:38:13;;;;;;;;;;;;;;;19.99;53.27;95185.91;10247357;28;5557;-67
2023/05/14 23:43:13;;;;;;;;;;;;;;;20.00;53.32;95186.69;10246501;28;1903;-68
2023/05/14 23:48:14;;;;;;;;;;;;;;;19.98;53.20;95179.09;10248644;28;1891;-68
2023/05/14 23:53:14;;;;;;;;;;;;;;;19.96;53.41;95175.19;10244641;28;1762;-67
2023/05/14 23:58:14;;;;;;;;;;;;;;;19.96;52.98;95170.69;10246944;28;1899;-68
